首页
METAR-TAF:

METAR-TAF

机场 :

Terrace, 不列颠哥伦比亚, 加拿大

纬度: 54-28N, 经度: 128-35W, 海拔: 217米

当前天气观测

该预报发布于58分钟前的23:00 UTC
风速6节,风向东转东南
温度 20°C
湿度 43%
气压 1015 hPa
能見度: 32.2公里
少量云层高于4500英尺
少量云层高于6000英尺
多云层高于20000英尺

METAR: CYXT 162300Z 12006KT 20SM FEW045 FEW060 BKN200 20/07 A2998 RMK CU1SC1CI6 CU TR SC TR SLP159 DENSITY ALT 1400FT

时间: 16:58 (23:58 UTC)

预报

该预报发布于5小时和18分钟前的18:40 UTC
预报有效从16日的 19点(UTC)到 17日的 07点(UTC)
风速8节,风向西南
能見度: 10公里
散云层高于1500英尺
多云层高于12000英尺
短暂存在
从 16日的 19点(UTC)到 16日的 20点(UTC)
多云层高于1500英尺
多云层高于3000英尺
从 16日的 2000点(UTC)
风速8节,风向南转西南
能見度: 10公里
散云层高于5000英尺
短暂存在
从 16日的 20点(UTC)到 17日的 04点(UTC)
能見度: 10公里
多云层高于5000英尺, 积雨云.
小阵雨, 附近有雷暴
从 17日的 0400点(UTC)
风速12节,风向
能見度: 10公里
少量云层高于1000英尺
多云层高于4000英尺
短暂存在
从 17日的 04点(UTC)到 17日的 07点(UTC)
能見度: 10公里
小雨

TAF: CYXT 161840Z 1619/1707 22008KT P6SM SCT015 BKN120 TEMPO 1619/1620 BKN015 BKN030 FM162000 21008KT P6SM SCT050 TEMPO 1620/1704 P6SM -SHRA VCTS BKN050CB FM170400 18012KT P6SM FEW010 BKN040 TEMPO 1704/1707 P6SM -RA RMK NXT FCST BY 170100Z

超过4000个机场的气象观测和天气预报(METAR&TAF报告)。

可查询的气象台以黄色和红色小点在地图上表示。

将鼠标移到小点上方,可查看气象台名称。

然后点击查看天气观测和预报。

如需切换地图:点击带黑十字的绿色按钮放大地图;点击带横线的绿色按钮缩小地图;或者点击绿色箭头查看邻近地区的地图。


METAR-TAF: